メインページ
METAR-TAF:

METAR-TAF

空港 :

トンコンティン国際空港

テグシガルパ, ホンジュラス

緯度: 14-03N, 経度: 087-13W, 海抜: 994m

現時点の気象観測

当レポートは25分前の21:00(UTC)に作成
の風 4kt
気温 21°C
湿度 83%
気圧 1020 hPa
視程: 6000m
高度1000ftの雲はほとんどない
高度2800ftの雲は散在している, 塔状積雲.
高度3000ftの雲はほとんどない, 積乱雲.
高度8000ftの千切れ雲あり
小雨

METAR: MHTG 162100Z 10004KT 6000 -RA FEW010 SCT028TCU FEW030CB BKN080 21/18 Q1020 A3012 NOSIG

時間: 15:25 (21:25 UTC)

予報

当レポートは4時間37分前の16:48(UTC)に作成
予報は16日の 18時(UTC)から 17日の 18時(UTC)まで有効
東/北東の風 6kt
視程10km以上
高度2800ftの雲は散在している, 塔状積雲.
16日の 20時(UTC)から 17日の 02時(UTC)まで一時的に
視程: 5000m
高度2800ftの雲は散在している, 積乱雲.
高度3000ftの雲は散在している, 塔状積雲.
17日の 02時(UTC)から 17日の 04時(UTC)まで徐々に
の風 4kt
視程: 7000m
高度2600ftの雲は散在している
高度8000ftの千切れ雲あり
17日の 06時(UTC)から 17日の 08時(UTC)まで徐々に
の風 kt
視程10km以上
高度700ftの雲はほとんどない
高度2600ftの千切れ雲あり

TAF: MHTG 161648Z 1618/1718 07006KT 9999 SCT028TCU TX28/1620Z TN18/1712Z TEMPO 1620/1702 5000 TSSHRA SCT028CB SCT030TCU BECMG 1702/1704 36004KT 7000 RA SCT026 BKN080 BECMG 1706/1708 00000KT 9999 NSW FEW007 BKN026

4,000以上の空港の気象観測と天気予報(METAR報とTAF報)

利用可能な観測所は地図上に黄色い丸と赤い丸で示す。

丸の上にカーソルを重ねると観測所名を参照できる。

次にクリックすると気象観測と天気予報を参照できる。

マップの切り替え:黒色「×」印の緑ボタンをクリックして拡大、「-」印の緑ボタンをクリックして縮小、緑色の三角印をクリックして隣りの地図に切り替え


METAR-TAF: